Orchard, Colorado
Current Conditions -  °F | °C
As of 7:55 AM on Sunday 21 Dec 2014 (Local Time) from KFMM Reporting Station
Clear Clear  
Wind Chill: 15°   Ceiling: Unl
Heat Index: 23°   Visibility: 10mi
Dew Point: 18°   Wind: 7mph
Humidity: 82%   Direction: 280°W
Pressure: 29.71"   Gusts: NA
Location:  40.33°N, 104.12°W
Report Text: KFMM 211455Z AUTO 28006KT 10SM CLR M05/M08 A2971 RMK AO2 T10501077
Loading
Personal Weather Stations






























Interactive Weather Map New forecast layout! Learn more

10-Day Weather Forecast

Advertisements
Track Severe Weather on mobile